createdAt,value
2022-09-15T00:02:17.882Z,13.62
2022-09-15T00:04:44.357Z,13.58
2022-09-15T00:07:10.977Z,13.57
2022-09-15T00:09:37.457Z,13.56
2022-09-15T00:12:04.534Z,13.53
2022-09-15T00:14:30.907Z,13.51
2022-09-15T00:16:57.386Z,13.47
2022-09-15T00:19:23.801Z,13.45
2022-09-15T00:21:50.175Z,13.42
2022-09-15T00:24:16.540Z,13.38
2022-09-15T00:26:42.943Z,13.37
2022-09-15T00:29:11.101Z,13.35
2022-09-15T00:31:37.499Z,13.32
2022-09-15T00:34:04.854Z,13.32
2022-09-15T00:36:31.536Z,13.34
2022-09-15T00:38:58.269Z,13.35
2022-09-15T00:41:25.547Z,13.34
2022-09-15T00:44:00.573Z,13.35
2022-09-15T00:46:38.276Z,13.39
2022-09-15T00:49:29.349Z,13.40
2022-09-15T00:52:14.122Z,13.40
2022-09-15T00:54:47.813Z,13.40
2022-09-15T00:57:20.874Z,13.41
2022-09-15T00:59:48.833Z,13.42
2022-09-15T01:02:21.563Z,13.42
2022-09-15T01:04:53.696Z,13.44
2022-09-15T01:07:37.381Z,13.42
2022-09-15T01:10:17.648Z,13.40
2022-09-15T01:12:44.106Z,13.38
2022-09-15T01:15:10.667Z,13.33
2022-09-15T01:18:05.364Z,13.31
2022-09-15T01:20:57.082Z,13.29
2022-09-15T01:23:47.292Z,13.29
2022-09-15T01:26:42.246Z,13.25
2022-09-15T01:29:39.555Z,13.24
2022-09-15T01:32:30.607Z,13.23
2022-09-15T01:35:10.673Z,13.24
2022-09-15T01:37:43.272Z,13.26
2022-09-15T01:40:12.453Z,13.26
2022-09-15T01:42:41.419Z,13.26
2022-09-15T01:45:17.666Z,13.24
2022-09-15T01:47:47.316Z,13.20
2022-09-15T01:50:21.524Z,13.19
2022-09-15T01:52:52.364Z,13.16
2022-09-15T01:55:25.218Z,13.16
2022-09-15T01:57:51.687Z,13.15
2022-09-15T02:00:18.276Z,13.13
2022-09-15T02:02:50.623Z,13.13
2022-09-15T02:05:26.068Z,13.14
2022-09-15T02:08:05.034Z,13.13
2022-09-15T02:10:58.783Z,13.13
2022-09-15T02:13:42.788Z,13.10
2022-09-15T02:16:19.828Z,13.10
2022-09-15T02:19:02.923Z,13.10
2022-09-15T02:21:46.780Z,13.11
2022-09-15T02:24:19.256Z,13.11
2022-09-15T02:26:49.506Z,13.09
2022-09-15T02:29:19.657Z,13.10
2022-09-15T02:31:48.620Z,13.10
2022-09-15T02:34:21.405Z,13.10
2022-09-15T02:36:50.623Z,13.10
2022-09-15T02:39:20.989Z,13.11
2022-09-15T02:41:48.735Z,13.11
2022-09-15T02:44:15.455Z,13.11
2022-09-15T02:46:41.923Z,13.11
2022-09-15T02:49:08.313Z,13.12
2022-09-15T02:51:35.316Z,13.13
2022-09-15T02:54:01.694Z,13.13
2022-09-15T02:56:28.113Z,13.13
2022-09-15T02:58:54.657Z,13.14
2022-09-15T03:01:21.126Z,13.15
2022-09-15T03:03:47.579Z,13.17
2022-09-15T03:06:17.047Z,13.15
2022-09-15T03:08:50.972Z,13.17
2022-09-15T03:11:20.041Z,13.18
2022-09-15T03:13:47.841Z,13.19
2022-09-15T03:16:17.141Z,13.19
2022-09-15T03:18:43.543Z,13.21
2022-09-15T03:21:13.151Z,13.23
2022-09-15T03:23:40.807Z,13.23
2022-09-15T03:26:07.938Z,13.23
2022-09-15T03:28:34.838Z,13.23
2022-09-15T03:31:01.968Z,13.24
2022-09-15T03:33:29.716Z,13.24
2022-09-15T03:35:56.288Z,13.24
2022-09-15T03:38:23.112Z,13.23
2022-09-15T03:41:05.230Z,13.24
2022-09-15T03:43:32.324Z,13.22
2022-09-15T03:45:59.304Z,13.22
2022-09-15T03:48:27.864Z,13.20
2022-09-15T03:50:54.383Z,13.20
2022-09-15T03:53:21.112Z,13.19
2022-09-15T03:55:48.887Z,13.20
2022-09-15T03:58:17.342Z,13.18
2022-09-15T04:00:44.219Z,13.18
2022-09-15T04:03:10.666Z,13.18
2022-09-15T04:05:38.612Z,13.18
2022-09-15T04:08:05.490Z,13.17
2022-09-15T04:10:32.345Z,13.19
2022-09-15T04:12:58.881Z,13.20
2022-09-15T04:15:25.559Z,13.22
2022-09-15T04:17:52.168Z,13.24
2022-09-15T04:20:18.979Z,13.27
2022-09-15T04:22:45.406Z,13.27
2022-09-15T04:25:12.068Z,13.27
2022-09-15T04:27:38.852Z,13.27
2022-09-15T04:30:07.352Z,13.28
2022-09-15T04:32:35.601Z,13.26
2022-09-15T04:35:03.896Z,13.25
2022-09-15T04:37:31.595Z,13.25
2022-09-15T04:39:58.202Z,13.25
2022-09-15T04:42:25.150Z,13.24
2022-09-15T04:44:51.608Z,13.27
2022-09-15T04:47:18.098Z,13.28
2022-09-15T04:49:44.636Z,13.29
2022-09-15T04:52:11.475Z,13.28
2022-09-15T04:54:37.958Z,13.28
2022-09-15T04:57:04.739Z,13.29
2022-09-15T04:59:31.448Z,13.29
2022-09-15T05:01:57.998Z,13.31
2022-09-15T05:04:24.543Z,13.32
2022-09-15T05:06:51.218Z,13.33
2022-09-15T05:09:17.900Z,13.32
2022-09-15T05:11:44.386Z,13.32
2022-09-15T05:14:11.355Z,13.32
2022-09-15T05:16:38.021Z,13.32
2022-09-15T05:19:04.681Z,13.32
2022-09-15T05:21:32.088Z,13.33
2022-09-15T05:23:58.578Z,13.33
2022-09-15T05:26:28.266Z,13.34
2022-09-15T05:28:55.971Z,13.35
2022-09-15T05:31:28.061Z,13.37
2022-09-15T05:33:55.087Z,13.36
2022-09-15T05:36:25.045Z,13.37
2022-09-15T05:38:53.458Z,13.38
2022-09-15T05:41:20.870Z,13.39
2022-09-15T05:43:48.940Z,13.39
2022-09-15T05:46:16.922Z,13.40
2022-09-15T05:48:43.998Z,13.43
2022-09-15T05:51:11.525Z,13.44
2022-09-15T05:53:38.663Z,13.46
2022-09-15T05:56:15.994Z,13.51
2022-09-15T05:58:45.550Z,13.55
2022-09-15T06:01:20.991Z,13.61
2022-09-15T06:03:48.249Z,13.61
2022-09-15T06:06:15.147Z,13.64
2022-09-15T06:08:50.072Z,13.67
2022-09-15T06:11:20.851Z,13.71
2022-09-15T06:13:48.182Z,13.74
2022-09-15T06:16:19.307Z,13.79
2022-09-15T06:18:47.243Z,13.85
2022-09-15T06:21:19.542Z,13.91
2022-09-15T06:23:50.622Z,13.95
2022-09-15T06:26:18.965Z,13.98
2022-09-15T06:28:56.874Z,14.08
2022-09-15T06:31:24.468Z,14.27
2022-09-15T06:33:53.340Z,14.80
2022-09-15T06:36:21.755Z,14.63
2022-09-15T06:38:48.809Z,14.46
2022-09-15T06:41:16.060Z,14.39
2022-09-15T06:43:43.510Z,14.32
2022-09-15T06:46:15.834Z,14.31
2022-09-15T06:48:46.349Z,14.32
2022-09-15T06:51:16.993Z,14.38
2022-09-15T06:53:44.124Z,14.45
2022-09-15T06:56:16.474Z,14.56
2022-09-15T06:58:43.808Z,14.67
2022-09-15T07:01:25.746Z,14.80
2022-09-15T07:03:52.624Z,14.92
2022-09-15T07:06:19.728Z,14.96
2022-09-15T07:08:46.684Z,14.99
2022-09-15T07:11:13.913Z,15.01
2022-09-15T07:13:41.045Z,15.01
2022-09-15T07:16:09.982Z,15.02
2022-09-15T07:18:42.332Z,14.99
2022-09-15T07:21:13.944Z,14.94
2022-09-15T07:23:40.965Z,14.92
2022-09-15T07:26:38.244Z,14.92
2022-09-15T07:29:06.677Z,14.92
2022-09-15T07:31:36.816Z,14.94
2022-09-15T07:34:04.654Z,14.98
2022-09-15T07:36:34.754Z,15.03
2022-09-15T07:39:06.589Z,15.11
2022-09-15T07:41:33.764Z,15.15
2022-09-15T07:44:00.742Z,15.22
2022-09-15T07:46:32.108Z,15.32
2022-09-15T07:48:59.127Z,15.41
2022-09-15T07:51:26.600Z,15.50
2022-09-15T07:53:53.797Z,15.55
2022-09-15T07:56:21.606Z,15.59
2022-09-15T07:58:49.036Z,15.61
2022-09-15T08:01:16.804Z,15.71
2022-09-15T08:03:46.191Z,15.80
2022-09-15T08:06:13.532Z,15.86
2022-09-15T08:08:40.951Z,15.89
2022-09-15T08:11:19.442Z,15.95
2022-09-15T08:13:47.445Z,15.98
2022-09-15T08:16:16.907Z,16.03
2022-09-15T08:18:47.330Z,16.08
2022-09-15T08:21:16.425Z,16.19
2022-09-15T08:23:43.545Z,16.27
2022-09-15T08:26:14.117Z,16.34
2022-09-15T08:28:41.774Z,16.34
2022-09-15T08:31:10.264Z,16.43
2022-09-15T08:33:38.954Z,16.49
2022-09-15T08:36:13.338Z,16.57
2022-09-15T08:38:43.608Z,16.64
2022-09-15T08:41:24.251Z,16.79
2022-09-15T08:44:36.249Z,16.81
2022-09-15T08:47:20.393Z,16.75
2022-09-15T08:50:07.800Z,16.81
2022-09-15T08:52:52.893Z,16.74
2022-09-15T08:55:33.335Z,16.65
2022-09-15T08:57:59.815Z,16.64
2022-09-15T09:00:35.783Z,16.65
2022-09-15T09:03:19.066Z,16.67
2022-09-15T09:06:03.861Z,16.68
2022-09-15T09:08:30.726Z,16.66
2022-09-15T09:11:12.642Z,16.71
2022-09-15T09:13:47.696Z,16.72
2022-09-15T09:16:53.921Z,16.70
2022-09-15T09:20:03.348Z,16.79
2022-09-15T09:22:35.662Z,16.77
2022-09-15T09:25:21.090Z,16.77
2022-09-15T09:27:51.023Z,16.80
2022-09-15T09:30:20.492Z,16.79
2022-09-15T09:32:49.944Z,16.80
2022-09-15T09:35:28.260Z,16.70
2022-09-15T09:37:55.417Z,16.65
2022-09-15T09:40:22.628Z,16.51
2022-09-15T09:42:49.410Z,16.52
2022-09-15T09:45:18.654Z,16.59
2022-09-15T09:47:46.928Z,16.67
2022-09-15T09:50:38.951Z,16.76
2022-09-15T09:53:33.211Z,17.03
2022-09-15T09:56:11.832Z,17.20
2022-09-15T09:58:38.517Z,17.36
2022-09-15T10:01:14.359Z,17.46
2022-09-15T10:03:43.119Z,17.46
2022-09-15T10:06:15.895Z,17.69
2022-09-15T10:09:05.190Z,17.90
2022-09-15T10:11:45.727Z,17.95
2022-09-15T10:14:33.192Z,17.87
2022-09-15T10:17:23.062Z,17.69
2022-09-15T10:19:54.976Z,17.58
2022-09-15T10:22:30.450Z,17.63
2022-09-15T10:24:58.666Z,17.67
2022-09-15T10:27:33.978Z,17.79
2022-09-15T10:30:12.667Z,17.92
2022-09-15T10:32:40.866Z,18.04
2022-09-15T10:35:15.152Z,18.24
2022-09-15T10:37:58.656Z,18.44
2022-09-15T10:40:28.123Z,18.49
2022-09-15T10:43:08.318Z,18.58
2022-09-15T10:45:51.019Z,18.71
2022-09-15T10:48:23.434Z,18.74
2022-09-15T10:50:59.057Z,18.78
2022-09-15T10:53:38.495Z,18.82
2022-09-15T10:56:31.950Z,18.83
2022-09-15T10:59:03.668Z,18.94
2022-09-15T11:01:30.402Z,18.96
2022-09-15T11:04:35.163Z,18.95
2022-09-15T11:07:13.347Z,18.95
2022-09-15T11:09:57.543Z,19.02
2022-09-15T11:12:43.445Z,19.03
2022-09-15T11:15:27.976Z,19.09
2022-09-15T11:18:24.078Z,19.11
2022-09-15T11:21:14.806Z,18.98
2022-09-15T11:24:10.128Z,18.99
2022-09-15T11:26:52.394Z,19.07
2022-09-15T11:29:22.134Z,19.06
2022-09-15T11:31:54.905Z,19.16
2022-09-15T11:34:35.777Z,19.20
2022-09-15T11:37:12.977Z,19.24
2022-09-15T11:39:48.752Z,19.09
2022-09-15T11:42:25.041Z,18.92
2022-09-15T11:44:51.712Z,18.65
2022-09-15T11:47:31.891Z,18.59
2022-09-15T11:50:11.094Z,18.55
2022-09-15T11:53:11.033Z,18.58
2022-09-15T11:55:43.348Z,18.51
2022-09-15T11:58:50.323Z,18.43
2022-09-15T12:01:20.288Z,18.42
2022-09-15T12:04:16.847Z,18.54
2022-09-15T12:06:54.020Z,18.71
2022-09-15T12:09:21.461Z,18.86
2022-09-15T12:11:51.679Z,18.89
2022-09-15T12:14:32.422Z,18.99
2022-09-15T12:16:59.661Z,19.10
2022-09-15T12:19:32.221Z,19.11
2022-09-15T12:22:10.698Z,19.14
2022-09-15T12:25:01.638Z,19.28
2022-09-15T12:27:28.642Z,19.45
2022-09-15T12:29:57.157Z,19.46
2022-09-15T12:32:29.195Z,19.33
2022-09-15T12:35:04.036Z,19.20
2022-09-15T12:37:55.952Z,18.97
2022-09-15T12:40:34.472Z,18.90
2022-09-15T12:43:11.517Z,18.74
2022-09-15T12:45:39.652Z,18.55
2022-09-15T12:48:18.853Z,18.49
2022-09-15T12:50:54.619Z,18.44
2022-09-15T12:53:25.551Z,18.34
2022-09-15T12:56:06.827Z,18.27
2022-09-15T12:58:37.978Z,18.16
2022-09-15T13:01:22.906Z,17.92
2022-09-15T13:03:55.342Z,17.71
2022-09-15T13:06:27.243Z,17.54
2022-09-15T13:09:07.007Z,17.49
2022-09-15T13:11:34.480Z,17.58
2022-09-15T13:14:04.078Z,17.59
2022-09-15T13:16:39.413Z,17.66
2022-09-15T13:19:35.814Z,17.87
2022-09-15T13:22:11.395Z,17.91
2022-09-15T13:25:00.761Z,18.04
2022-09-15T13:27:39.873Z,18.09
2022-09-15T13:30:21.360Z,18.15
2022-09-15T13:33:02.742Z,18.20
2022-09-15T13:35:32.095Z,18.15
2022-09-15T13:38:31.399Z,18.22
2022-09-15T13:41:33.151Z,18.42
2022-09-15T13:44:36.651Z,18.38
2022-09-15T13:47:37.782Z,18.43
2022-09-15T13:50:14.367Z,18.27
2022-09-15T13:52:43.724Z,18.28
2022-09-15T13:55:26.203Z,18.42
2022-09-15T14:00:56.872Z,18.92
2022-09-15T14:03:36.891Z,18.73
2022-09-15T14:06:11.797Z,18.57
2022-09-15T14:08:39.793Z,18.38
2022-09-15T14:11:11.816Z,18.23
2022-09-15T14:13:43.264Z,18.06
2022-09-15T14:16:25.374Z,17.93
2022-09-15T14:18:54.800Z,17.69
2022-09-15T14:21:24.904Z,17.54
2022-09-15T14:23:54.834Z,17.39
2022-09-15T14:26:25.321Z,17.44
2022-09-15T14:29:20.944Z,17.44
2022-09-15T14:31:48.884Z,17.52
2022-09-15T14:34:22.371Z,17.75
2022-09-15T14:37:01.937Z,17.95
2022-09-15T14:39:28.578Z,18.10
2022-09-15T14:41:55.113Z,18.20
2022-09-15T14:47:28.520Z,18.22
2022-09-15T14:50:15.997Z,18.20
2022-09-15T14:53:20.573Z,18.17
2022-09-15T14:56:22.204Z,18.08
2022-09-15T14:58:54.257Z,18.11
2022-09-15T15:01:37.905Z,18.18
2022-09-15T15:04:18.945Z,18.14
2022-09-15T15:06:55.796Z,18.10
2022-09-15T15:09:34.578Z,17.93
2022-09-15T15:12:06.794Z,17.86
2022-09-15T15:14:35.198Z,17.83
2022-09-15T15:17:07.947Z,17.91
2022-09-15T15:19:39.689Z,17.85
2022-09-15T15:22:19.966Z,17.87
2022-09-15T15:24:49.515Z,17.85
2022-09-15T15:27:34.142Z,17.78
2022-09-15T15:30:31.013Z,17.72
2022-09-15T15:33:06.776Z,17.72
2022-09-15T15:35:35.616Z,17.79
2022-09-15T15:38:12.752Z,17.91
2022-09-15T15:40:40.592Z,18.02
2022-09-15T15:43:25.140Z,18.05
2022-09-15T15:46:03.508Z,17.93
2022-09-15T15:48:37.840Z,17.77
2022-09-15T15:51:06.548Z,17.64
2022-09-15T15:53:34.304Z,17.50
2022-09-15T15:56:01.132Z,17.37
2022-09-15T15:58:27.975Z,17.20
2022-09-15T16:00:58.852Z,17.11
2022-09-15T16:03:25.542Z,17.12
2022-09-15T16:05:58.789Z,17.16
2022-09-15T16:08:38.604Z,17.08
2022-09-15T16:11:08.217Z,16.91
2022-09-15T16:13:34.697Z,16.77
2022-09-15T16:16:01.730Z,16.68
2022-09-15T16:18:29.291Z,16.53
2022-09-15T16:20:55.925Z,16.52
2022-09-15T16:23:23.421Z,16.61
2022-09-15T16:25:59.216Z,16.65
2022-09-15T16:28:26.081Z,16.60
2022-09-15T16:30:52.492Z,16.57
2022-09-15T16:33:19.084Z,16.55
2022-09-15T16:35:45.893Z,16.50
2022-09-15T16:38:12.364Z,16.44
2022-09-15T16:40:38.792Z,16.39
2022-09-15T16:43:10.250Z,16.30
2022-09-15T16:45:40.583Z,16.26
2022-09-15T16:48:08.432Z,16.12
2022-09-15T16:50:35.301Z,16.12
2022-09-15T16:53:01.878Z,16.07
2022-09-15T16:55:51.423Z,15.97
2022-09-15T16:58:19.849Z,15.89
2022-09-15T17:00:49.026Z,15.88
2022-09-15T17:03:17.933Z,15.85
2022-09-15T17:05:48.685Z,15.80
2022-09-15T17:08:17.682Z,15.82
2022-09-15T17:10:44.755Z,15.75
2022-09-15T17:13:17.548Z,15.73
2022-09-15T17:15:45.735Z,15.71
2022-09-15T17:18:15.343Z,15.68
2022-09-15T17:20:43.544Z,15.67
2022-09-15T17:23:20.350Z,15.66
2022-09-15T17:25:52.660Z,15.63
2022-09-15T17:28:24.687Z,15.61
2022-09-15T17:30:53.060Z,15.54
2022-09-15T17:33:20.472Z,15.50
2022-09-15T17:35:47.469Z,15.45
2022-09-15T17:38:14.678Z,15.39
2022-09-15T17:40:41.806Z,15.43
2022-09-15T17:43:24.241Z,15.35
2022-09-15T17:45:51.124Z,15.33
2022-09-15T17:48:18.123Z,15.28
2022-09-15T17:50:46.153Z,15.29
2022-09-15T17:53:15.113Z,15.24
2022-09-15T17:55:42.100Z,15.15
2022-09-15T17:58:09.008Z,15.09
2022-09-15T18:00:40.249Z,15.06
2022-09-15T18:03:28.908Z,15.01
2022-09-15T18:05:58.479Z,14.95
2022-09-15T18:08:25.922Z,14.90
2022-09-15T18:10:52.484Z,14.86
2022-09-15T18:13:22.289Z,14.85
2022-09-15T18:15:49.861Z,14.86
2022-09-15T18:18:18.763Z,14.87
2022-09-15T18:20:45.764Z,14.88
2022-09-15T18:23:18.241Z,14.85
2022-09-15T18:25:46.955Z,14.84
2022-09-15T18:28:15.265Z,14.71
2022-09-15T18:30:45.222Z,14.53
2022-09-15T18:33:24.658Z,14.30
2022-09-15T18:35:53.987Z,14.12
2022-09-15T18:38:21.748Z,14.05
2022-09-15T18:40:53.178Z,13.83
2022-09-15T18:43:21.729Z,13.70
2022-09-15T18:45:48.480Z,13.64
2022-09-15T18:48:15.818Z,13.54
2022-09-15T18:50:44.242Z,13.49
2022-09-15T18:53:10.843Z,13.48
2022-09-15T18:55:40.072Z,13.43
2022-09-15T18:58:06.697Z,13.42
2022-09-15T19:00:33.081Z,13.37
2022-09-15T19:03:02.120Z,13.43
2022-09-15T19:05:29.876Z,13.42
2022-09-15T19:07:57.192Z,13.37
2022-09-15T19:10:25.145Z,13.37
2022-09-15T19:12:51.656Z,13.38
2022-09-15T19:15:18.369Z,13.36
2022-09-15T19:17:44.989Z,13.32
2022-09-15T19:20:14.937Z,13.29
2022-09-15T19:22:41.878Z,13.26
2022-09-15T19:25:09.946Z,13.25
2022-09-15T19:27:37.945Z,13.22
2022-09-15T19:30:05.700Z,13.22
2022-09-15T19:32:36.943Z,13.21
2022-09-15T19:35:04.694Z,13.15
2022-09-15T19:37:32.171Z,13.20
2022-09-15T19:39:59.035Z,13.18
2022-09-15T19:42:25.664Z,13.12
2022-09-15T19:44:52.035Z,13.07
2022-09-15T19:47:18.745Z,12.98
2022-09-15T19:49:45.201Z,12.92
2022-09-15T19:52:13.172Z,12.86
2022-09-15T19:54:40.416Z,12.86
2022-09-15T19:57:06.932Z,12.86
2022-09-15T19:59:34.131Z,12.84
2022-09-15T20:02:01.460Z,12.80
2022-09-15T20:04:28.659Z,12.77
2022-09-15T20:06:55.162Z,12.75
2022-09-15T20:09:22.194Z,12.75
2022-09-15T20:11:49.008Z,12.73
2022-09-15T20:14:16.246Z,12.73
2022-09-15T20:16:43.178Z,12.76
2022-09-15T20:19:09.961Z,12.77
2022-09-15T20:21:49.691Z,12.79
2022-09-15T20:24:16.889Z,12.78
2022-09-15T20:26:43.293Z,12.76
2022-09-15T20:29:10.079Z,12.73
2022-09-15T20:31:36.729Z,12.75
2022-09-15T20:34:03.551Z,12.73
2022-09-15T20:36:36.454Z,12.68
2022-09-15T20:39:09.334Z,12.69
2022-09-15T20:41:36.969Z,12.69
2022-09-15T20:44:05.158Z,12.61
2022-09-15T20:46:33.428Z,12.58
2022-09-15T20:48:59.921Z,12.56
2022-09-15T20:51:29.524Z,12.58
2022-09-15T20:53:57.066Z,12.56
2022-09-15T20:56:26.200Z,12.54
2022-09-15T20:58:54.277Z,12.50
2022-09-15T21:01:23.494Z,12.47
2022-09-15T21:03:50.407Z,12.43
2022-09-15T21:06:23.822Z,12.41
2022-09-15T21:08:50.645Z,12.37
2022-09-15T21:11:19.308Z,12.33
2022-09-15T21:13:47.280Z,12.27
2022-09-15T21:16:18.312Z,12.21
2022-09-15T21:18:45.316Z,12.15
2022-09-15T21:21:14.859Z,12.14
2022-09-15T21:24:03.943Z,12.13
2022-09-15T21:26:58.370Z,12.11
2022-09-15T21:29:26.351Z,12.07
2022-09-15T21:31:53.041Z,12.02
2022-09-15T21:34:22.470Z,12.01
2022-09-15T21:36:51.614Z,11.98
2022-09-15T21:39:18.304Z,11.95
2022-09-15T21:41:44.773Z,11.89
2022-09-15T21:44:11.615Z,11.91
2022-09-15T21:46:38.037Z,11.92
2022-09-15T21:49:05.564Z,11.93
2022-09-15T21:51:33.653Z,11.88
2022-09-15T21:54:00.619Z,11.85
2022-09-15T21:56:29.086Z,11.79
2022-09-15T21:58:58.139Z,11.81
2022-09-15T22:01:30.177Z,11.80
2022-09-15T22:03:58.493Z,11.82
2022-09-15T22:06:29.070Z,11.82
2022-09-15T22:08:56.108Z,11.80
2022-09-15T22:11:25.168Z,11.79
2022-09-15T22:13:51.786Z,11.77
2022-09-15T22:16:21.266Z,11.76
2022-09-15T22:18:48.805Z,11.76
2022-09-15T22:21:23.661Z,11.77
2022-09-15T22:23:53.582Z,11.76
2022-09-15T22:26:22.417Z,11.77
2022-09-15T22:28:49.187Z,11.74
2022-09-15T22:31:18.255Z,11.71
2022-09-15T22:33:44.836Z,11.73
2022-09-15T22:36:12.865Z,11.75
2022-09-15T22:38:39.852Z,11.74
2022-09-15T22:41:09.169Z,11.76
2022-09-15T22:43:36.709Z,11.77
2022-09-15T22:46:06.219Z,11.78
2022-09-15T22:48:33.142Z,11.76
2022-09-15T22:51:03.138Z,11.74
2022-09-15T22:53:29.569Z,11.71
2022-09-15T22:56:08.429Z,11.68
2022-09-15T22:58:38.553Z,11.62
2022-09-15T23:01:12.282Z,11.58
2022-09-15T23:03:39.574Z,11.55
2022-09-15T23:06:07.644Z,11.52
2022-09-15T23:08:34.712Z,11.48
2022-09-15T23:11:02.362Z,11.46
2022-09-15T23:13:28.977Z,11.43
2022-09-15T23:15:55.715Z,11.42
2022-09-15T23:18:22.260Z,11.38
2022-09-15T23:20:55.596Z,11.36
2022-09-15T23:23:22.021Z,11.34
2022-09-15T23:25:48.474Z,11.35
2022-09-15T23:28:18.024Z,11.35
2022-09-15T23:30:44.638Z,11.35
2022-09-15T23:33:11.288Z,11.37
2022-09-15T23:35:40.556Z,11.40
2022-09-15T23:38:06.929Z,11.40
2022-09-15T23:40:33.338Z,11.39
2022-09-15T23:43:00.001Z,11.41
2022-09-15T23:45:26.416Z,11.40
2022-09-15T23:47:53.038Z,11.42
2022-09-15T23:50:19.457Z,11.41
2022-09-15T23:52:45.866Z,11.39
2022-09-15T23:55:12.319Z,11.39
2022-09-15T23:57:38.766Z,11.42
